BXS weather

Borrego Valley Airport
Borrego Springs, California, United States

Public forecast

Using degrees Fahrenheit for public forecast. Weather courtesy of forecast.io.

Closest aviation weather report (METAR) to Borrego Valley Airport

Closest report is Jacqueline Cochran Regional Airport, 23.5 nm (43.5 km) NNE. Retrieved 2019/12/11 04:52 UTC (51 minutes ago):

KTRM 110452Z AUTO 33003KT 10SM CLR 12/07 A3019 RMK AO2 SLP224 T01170067

Closest aviation forecast (TAF) to Borrego Valley Airport

Closest forecast is Jacqueline Cochran Regional Airport, 23.5 nm (43.5 km) NNE. Retrieved 2019-12-11 00:33 UTC (5 hours ago):

TAF KTRM 102331Z 1100/1124 VRB04KT P6SM BKN250